createdAt,value
2023-02-15T00:00:11.466Z,10.40
2023-02-15T00:02:38.693Z,11.02
2023-02-15T00:05:05.824Z,5.82
2023-02-15T00:07:32.654Z,4.32
2023-02-15T00:09:59.476Z,5.85
2023-02-15T00:12:26.750Z,3.50
2023-02-15T00:14:53.600Z,3.10
2023-02-15T00:17:21.825Z,5.60
2023-02-15T00:19:49.053Z,4.82
2023-02-15T00:22:15.831Z,5.43
2023-02-15T00:24:43.050Z,4.95
2023-02-15T00:27:10.275Z,5.75
2023-02-15T00:29:37.270Z,7.38
2023-02-15T00:32:04.194Z,8.95
2023-02-15T00:34:31.441Z,4.68
2023-02-15T00:36:58.644Z,4.47
2023-02-15T00:39:26.563Z,5.30
2023-02-15T00:41:53.426Z,8.00
2023-02-15T00:44:20.594Z,8.80
2023-02-15T00:46:47.777Z,9.43
2023-02-15T00:49:14.661Z,4.95
2023-02-15T00:51:41.836Z,7.80
2023-02-15T00:54:09.125Z,5.22
2023-02-15T00:56:36.309Z,8.45
2023-02-15T00:59:03.866Z,6.03
2023-02-15T01:01:31.141Z,4.70
2023-02-15T01:03:58.502Z,3.67
2023-02-15T01:06:25.659Z,2.80
2023-02-15T01:08:52.574Z,3.72
2023-02-15T01:11:25.532Z,4.80
2023-02-15T01:13:58.054Z,4.53
2023-02-15T01:16:26.654Z,3.50
2023-02-15T01:18:55.562Z,5.72
2023-02-15T01:21:24.841Z,6.22
2023-02-15T01:23:51.705Z,2.83
2023-02-15T01:26:18.955Z,3.88
2023-02-15T01:28:46.811Z,5.65
2023-02-15T01:31:16.499Z,2.83
2023-02-15T01:33:43.925Z,2.53
2023-02-15T01:36:11.267Z,5.32
2023-02-15T01:38:38.260Z,5.88
2023-02-15T01:41:21.298Z,6.05
2023-02-15T01:43:52.823Z,6.07
2023-02-15T01:46:23.125Z,5.90
2023-02-15T01:48:54.975Z,4.28
2023-02-15T01:51:26.460Z,6.20
2023-02-15T01:53:58.478Z,9.68
2023-02-15T01:56:31.462Z,8.35
2023-02-15T01:59:03.644Z,11.73
2023-02-15T02:01:30.962Z,13.48
2023-02-15T02:04:08.296Z,11.60
2023-02-15T02:06:38.937Z,10.85
2023-02-15T02:09:06.430Z,8.32
2023-02-15T02:11:34.196Z,7.20
2023-02-15T02:14:01.511Z,6.10
2023-02-15T02:16:54.864Z,7.97
2023-02-15T02:19:30.625Z,14.25
2023-02-15T02:22:15.474Z,8.82
2023-02-15T02:24:45.042Z,6.03
2023-02-15T02:27:48.299Z,9.25
2023-02-15T02:31:01.695Z,5.07
2023-02-15T02:33:52.719Z,3.45
2023-02-15T02:36:25.782Z,5.72
2023-02-15T02:39:10.330Z,4.97
2023-02-15T02:41:49.273Z,6.53
2023-02-15T02:47:11.310Z,8.00
2023-02-15T02:49:41.193Z,10.23
2023-02-15T02:52:35.513Z,10.32
2023-02-15T02:55:06.559Z,11.20
2023-02-15T02:57:35.442Z,13.48
2023-02-15T03:00:05.569Z,12.70
2023-02-15T03:02:42.745Z,16.63
2023-02-15T03:05:16.233Z,15.32
2023-02-15T03:07:47.579Z,12.75
2023-02-15T03:10:15.392Z,11.82
2023-02-15T03:12:42.536Z,10.15
2023-02-15T03:15:17.891Z,8.93
2023-02-15T03:17:49.085Z,9.25
2023-02-15T03:20:26.296Z,14.00
2023-02-15T03:22:59.238Z,11.68
2023-02-15T03:25:37.133Z,11.57
2023-02-15T03:28:08.384Z,12.20
2023-02-15T03:30:37.587Z,12.40
2023-02-15T03:33:07.116Z,13.48
2023-02-15T03:35:59.013Z,15.15
2023-02-15T03:38:49.397Z,12.23
2023-02-15T03:41:20.603Z,11.57
2023-02-15T03:44:06.939Z,12.65
2023-02-15T03:47:00.802Z,12.80
2023-02-15T03:49:54.659Z,12.63
2023-02-15T03:52:24.341Z,12.95
2023-02-15T03:54:52.043Z,11.82
2023-02-15T03:57:43.303Z,11.98
2023-02-15T04:00:40.789Z,13.27
2023-02-15T04:03:13.900Z,13.93
2023-02-15T04:05:40.955Z,12.70
2023-02-15T04:08:08.665Z,12.60
2023-02-15T04:10:54.603Z,12.32
2023-02-15T04:13:23.172Z,15.95
2023-02-15T04:16:07.290Z,12.45
2023-02-15T04:19:02.936Z,10.63
2023-02-15T04:21:50.011Z,9.77
2023-02-15T04:24:36.122Z,9.75
2023-02-15T04:27:05.312Z,10.93
2023-02-15T04:29:32.922Z,15.63
2023-02-15T04:32:02.001Z,11.48
2023-02-15T04:34:29.069Z,11.75
2023-02-15T04:36:56.544Z,12.23
2023-02-15T04:39:23.490Z,13.00
2023-02-15T04:41:50.371Z,13.90
2023-02-15T04:44:17.547Z,12.27
2023-02-15T04:46:44.385Z,12.38
2023-02-15T04:49:11.236Z,15.95
2023-02-15T04:51:38.103Z,11.43
2023-02-15T04:54:05.005Z,12.35
2023-02-15T04:56:34.082Z,10.80
2023-02-15T04:59:00.908Z,10.90
2023-02-15T05:01:27.849Z,13.57
2023-02-15T05:03:55.339Z,21.63
2023-02-15T05:06:28.698Z,13.75
2023-02-15T05:08:56.005Z,11.63
2023-02-15T05:11:23.281Z,11.07
2023-02-15T05:13:51.117Z,12.57
2023-02-15T05:16:18.417Z,11.60
2023-02-15T05:18:45.302Z,13.60
2023-02-15T05:21:12.565Z,14.70
2023-02-15T05:23:39.376Z,14.25
2023-02-15T05:26:25.247Z,12.40
2023-02-15T05:28:52.529Z,16.10
2023-02-15T05:31:20.570Z,17.55
2023-02-15T05:33:47.918Z,17.73
2023-02-15T05:36:15.041Z,20.05
2023-02-15T05:38:42.305Z,20.95
2023-02-15T05:41:10.646Z,22.13
2023-02-15T05:43:38.247Z,21.92
2023-02-15T05:46:05.934Z,25.48
2023-02-15T05:48:33.126Z,18.95
2023-02-15T05:51:05.211Z,22.77
2023-02-15T05:53:34.472Z,17.70
2023-02-15T05:56:03.678Z,28.60
2023-02-15T05:58:36.229Z,18.42
2023-02-15T06:01:18.517Z,15.50
2023-02-15T06:03:46.616Z,13.32
2023-02-15T06:06:13.906Z,15.05
2023-02-15T06:08:41.395Z,12.77
2023-02-15T06:11:08.962Z,15.43
2023-02-15T06:13:38.574Z,12.27
2023-02-15T06:16:06.953Z,12.70
2023-02-15T06:18:33.889Z,13.32
2023-02-15T06:21:00.801Z,14.10
2023-02-15T06:23:28.299Z,15.13
2023-02-15T06:25:55.626Z,15.82
2023-02-15T06:28:22.496Z,18.23
2023-02-15T06:30:49.329Z,19.05
2023-02-15T06:33:16.590Z,17.15
2023-02-15T06:35:44.209Z,17.52
2023-02-15T06:38:11.576Z,15.13
2023-02-15T06:40:38.748Z,16.00
2023-02-15T06:43:05.612Z,16.05
2023-02-15T06:45:32.738Z,17.70
2023-02-15T06:47:59.603Z,11.88
2023-02-15T06:50:26.415Z,11.63
2023-02-15T06:53:00.533Z,16.83
2023-02-15T06:55:27.725Z,14.35
2023-02-15T06:57:54.594Z,15.73
2023-02-15T07:00:23.490Z,19.75
2023-02-15T07:02:58.644Z,14.02
2023-02-15T07:05:31.664Z,10.73
2023-02-15T07:07:59.533Z,12.70
2023-02-15T07:10:27.272Z,11.45
2023-02-15T07:12:54.490Z,14.20
2023-02-15T07:15:21.906Z,13.00
2023-02-15T07:17:50.073Z,13.07
2023-02-15T07:20:22.997Z,16.47
2023-02-15T07:22:50.464Z,13.68
2023-02-15T07:25:17.798Z,16.55
2023-02-15T07:27:45.916Z,13.27
2023-02-15T07:30:15.997Z,12.33
2023-02-15T07:33:04.754Z,11.48
2023-02-15T07:37:58.529Z,14.73
2023-02-15T07:40:25.827Z,10.45
2023-02-15T07:42:57.200Z,11.07
2023-02-15T07:45:24.454Z,11.50
2023-02-15T07:47:51.684Z,10.10
2023-02-15T07:50:18.970Z,12.13
2023-02-15T07:52:45.792Z,14.20
2023-02-15T07:55:13.850Z,13.02
2023-02-15T07:57:45.873Z,13.10
2023-02-15T08:00:14.556Z,11.20
2023-02-15T08:02:41.393Z,10.48
2023-02-15T08:05:08.663Z,13.25
2023-02-15T08:07:35.575Z,11.73
2023-02-15T08:10:02.852Z,17.30
2023-02-15T08:12:29.894Z,14.95
2023-02-15T08:14:56.843Z,13.65
2023-02-15T08:17:24.639Z,12.25
2023-02-15T08:19:51.913Z,17.88
2023-02-15T08:22:18.764Z,13.40
2023-02-15T08:24:46.015Z,13.07
2023-02-15T08:27:13.452Z,14.70
2023-02-15T08:29:40.533Z,12.55
2023-02-15T08:32:10.742Z,17.95
2023-02-15T08:34:41.334Z,12.23
2023-02-15T08:37:08.846Z,14.15
2023-02-15T08:39:36.147Z,11.88
2023-02-15T08:42:03.362Z,11.45
2023-02-15T08:44:30.671Z,13.95
2023-02-15T08:47:03.695Z,37.05
2023-02-15T08:49:30.985Z,20.98
2023-02-15T08:51:58.292Z,13.40
2023-02-15T08:54:25.186Z,13.57
2023-02-15T08:56:52.313Z,16.88
2023-02-15T08:59:21.627Z,13.73
2023-02-15T09:01:51.013Z,14.80
2023-02-15T09:04:18.467Z,11.27
2023-02-15T09:06:48.598Z,13.57
2023-02-15T09:09:17.352Z,12.02
2023-02-15T09:11:46.608Z,7.25
2023-02-15T09:14:16.542Z,11.25
2023-02-15T09:16:49.906Z,12.48
2023-02-15T09:19:21.282Z,10.68
2023-02-15T09:21:48.757Z,7.63
2023-02-15T09:24:17.535Z,8.52
2023-02-15T09:26:47.170Z,12.27
2023-02-15T09:29:14.720Z,15.75
2023-02-15T09:31:45.395Z,12.98
2023-02-15T09:34:14.071Z,11.55
2023-02-15T09:36:41.943Z,12.80
2023-02-15T09:39:15.744Z,16.10
2023-02-15T09:42:05.466Z,13.68
2023-02-15T09:44:54.155Z,9.05
2023-02-15T09:47:50.308Z,12.30
2023-02-15T09:50:38.000Z,11.68
2023-02-15T09:53:37.359Z,10.73
2023-02-15T09:56:25.540Z,13.10
2023-02-15T09:58:53.662Z,11.98
2023-02-15T10:01:29.735Z,12.40
2023-02-15T10:04:21.015Z,12.18
2023-02-15T10:07:07.541Z,9.18
2023-02-15T10:09:49.730Z,13.52
2023-02-15T10:12:48.247Z,8.90
2023-02-15T10:15:21.257Z,12.38
2023-02-15T10:18:06.437Z,11.65
2023-02-15T10:21:11.001Z,10.57
2023-02-15T10:23:43.914Z,11.00
2023-02-15T10:26:26.513Z,13.13
2023-02-15T10:28:56.008Z,15.80
2023-02-15T10:31:32.511Z,10.50
2023-02-15T10:34:23.408Z,10.35
2023-02-15T10:37:23.354Z,12.88
2023-02-15T10:40:16.438Z,13.27
2023-02-15T10:42:43.304Z,14.52
2023-02-15T10:45:22.327Z,26.42
2023-02-15T10:48:08.224Z,33.50
2023-02-15T10:50:51.461Z,18.23
2023-02-15T10:53:56.119Z,14.05
2023-02-15T10:56:32.091Z,16.60
2023-02-15T10:59:04.642Z,16.20
2023-02-15T11:01:55.992Z,15.35
2023-02-15T11:04:53.918Z,17.10
2023-02-15T11:07:52.062Z,22.53
2023-02-15T11:10:27.628Z,17.20
2023-02-15T11:12:57.826Z,14.85
2023-02-15T11:16:05.814Z,14.05
2023-02-15T11:18:38.510Z,12.18
2023-02-15T11:21:29.992Z,20.75
2023-02-15T11:23:56.851Z,28.58
2023-02-15T11:26:49.664Z,18.00
2023-02-15T11:29:39.741Z,18.40
2023-02-15T11:32:31.835Z,11.95
2023-02-15T11:35:13.582Z,15.18
2023-02-15T11:37:47.610Z,11.75
2023-02-15T11:40:25.744Z,13.77
2023-02-15T11:42:56.859Z,13.68
2023-02-15T11:45:32.494Z,12.30
2023-02-15T11:48:00.896Z,14.32
2023-02-15T11:50:31.815Z,14.55
2023-02-15T11:53:25.799Z,15.18
2023-02-15T11:55:53.033Z,13.15
2023-02-15T11:58:49.188Z,15.77
2023-02-15T12:01:34.816Z,17.38
2023-02-15T12:04:21.685Z,18.58
2023-02-15T12:07:02.971Z,19.23
2023-02-15T12:09:51.605Z,17.08
2023-02-15T12:12:37.094Z,15.70
2023-02-15T12:15:10.782Z,16.52
2023-02-15T12:17:54.052Z,28.35
2023-02-15T12:20:20.818Z,20.05
2023-02-15T12:23:03.286Z,13.85
2023-02-15T12:25:36.353Z,13.93
2023-02-15T12:28:05.162Z,14.10
2023-02-15T12:30:32.662Z,13.02
2023-02-15T12:33:27.494Z,16.40
2023-02-15T12:36:20.034Z,17.17
2023-02-15T12:39:05.665Z,12.85
2023-02-15T12:41:33.027Z,11.80
2023-02-15T12:44:20.079Z,15.23
2023-02-15T12:47:05.750Z,12.75
2023-02-15T12:49:34.882Z,14.90
2023-02-15T12:52:10.384Z,15.02
2023-02-15T12:54:44.278Z,13.60
2023-02-15T12:57:26.991Z,18.70
2023-02-15T13:00:05.232Z,15.88
2023-02-15T13:02:50.825Z,16.05
2023-02-15T13:05:39.552Z,18.15
2023-02-15T13:08:15.228Z,18.70
2023-02-15T13:10:54.256Z,19.13
2023-02-15T13:13:25.533Z,22.70
2023-02-15T13:15:56.183Z,14.43
2023-02-15T13:18:44.915Z,20.08
2023-02-15T13:21:35.064Z,13.88
2023-02-15T13:24:07.112Z,17.15
2023-02-15T13:26:35.974Z,16.38
2023-02-15T13:29:24.648Z,17.40
2023-02-15T13:31:54.030Z,16.77
2023-02-15T13:34:34.645Z,22.15
2023-02-15T13:37:20.204Z,24.90
2023-02-15T13:40:02.803Z,17.30
2023-02-15T13:42:32.425Z,21.30
2023-02-15T13:45:09.271Z,32.47
2023-02-15T13:47:56.756Z,15.30
2023-02-15T13:51:01.043Z,15.70
2023-02-15T13:53:59.952Z,12.95
2023-02-15T13:56:45.901Z,19.20
2023-02-15T13:59:22.009Z,16.73
2023-02-15T14:02:07.597Z,17.98
2023-02-15T14:04:51.567Z,18.55
2023-02-15T14:07:31.008Z,15.00
2023-02-15T14:09:58.263Z,12.60
2023-02-15T14:12:34.065Z,16.90
2023-02-15T14:15:19.056Z,14.65
2023-02-15T14:18:07.928Z,14.88
2023-02-15T14:23:28.599Z,13.50
2023-02-15T14:26:12.910Z,18.73
2023-02-15T14:29:06.279Z,12.75
2023-02-15T14:31:41.949Z,17.52
2023-02-15T14:34:34.864Z,15.35
2023-02-15T14:37:02.450Z,17.20
2023-02-15T14:40:19.803Z,16.02
2023-02-15T14:42:55.787Z,26.83
2023-02-15T14:45:34.199Z,20.50
2023-02-15T14:48:07.508Z,15.40
2023-02-15T14:50:44.073Z,40.50
2023-02-15T14:53:33.112Z,69.15
2023-02-15T14:56:14.823Z,70.65
2023-02-15T14:59:22.226Z,59.00
2023-02-15T15:01:57.304Z,73.15
2023-02-15T15:04:39.617Z,19.33
2023-02-15T15:07:13.273Z,18.20
2023-02-15T15:09:42.348Z,16.25
2023-02-15T15:12:15.573Z,29.95
2023-02-15T15:14:44.981Z,20.90
2023-02-15T15:17:14.445Z,25.73
2023-02-15T15:19:52.351Z,20.05
2023-02-15T15:22:22.167Z,22.85
2023-02-15T15:24:57.190Z,18.13
2023-02-15T15:27:44.717Z,18.55
2023-02-15T15:30:14.667Z,19.67
2023-02-15T15:32:55.489Z,20.90
2023-02-15T15:35:53.692Z,24.25
2023-02-15T15:38:54.869Z,23.67
2023-02-15T15:41:52.219Z,23.30
2023-02-15T15:44:38.102Z,18.65
2023-02-15T15:47:05.371Z,40.85
2023-02-15T15:49:35.761Z,20.15
2023-02-15T15:52:09.495Z,22.75
2023-02-15T15:54:40.814Z,27.50
2023-02-15T15:57:17.312Z,29.63
2023-02-15T15:59:47.744Z,40.40
2023-02-15T16:02:19.794Z,25.15
2023-02-15T16:04:48.647Z,19.08
2023-02-15T16:07:15.429Z,23.77
2023-02-15T16:09:43.522Z,36.67
2023-02-15T16:12:18.634Z,30.73
2023-02-15T16:14:48.329Z,24.88
2023-02-15T16:17:21.098Z,24.20
2023-02-15T16:19:48.543Z,22.83
2023-02-15T16:22:22.567Z,24.30
2023-02-15T16:25:17.603Z,19.40
2023-02-15T16:27:48.720Z,19.50
2023-02-15T16:30:34.531Z,19.90
2023-02-15T16:33:10.127Z,23.88
2023-02-15T16:35:42.329Z,25.50
2023-02-15T16:38:12.470Z,22.73
2023-02-15T16:40:48.756Z,22.90
2023-02-15T16:43:30.359Z,25.48
2023-02-15T16:46:05.579Z,26.80
2023-02-15T16:48:36.080Z,22.88
2023-02-15T16:51:03.342Z,22.20
2023-02-15T16:53:30.579Z,38.53
2023-02-15T16:56:04.937Z,21.45
2023-02-15T16:58:42.365Z,22.33
2023-02-15T17:01:12.172Z,26.33
2023-02-15T17:03:40.956Z,25.42
2023-02-15T17:06:20.366Z,22.50
2023-02-15T17:08:48.147Z,25.05
2023-02-15T17:11:20.464Z,20.13
2023-02-15T17:14:10.902Z,17.60
2023-02-15T17:16:50.036Z,22.23
2023-02-15T17:19:19.607Z,18.50
2023-02-15T17:21:55.987Z,20.98
2023-02-15T17:24:31.980Z,19.35
2023-02-15T17:27:01.877Z,30.10
2023-02-15T17:29:40.369Z,18.80
2023-02-15T17:32:18.867Z,18.63
2023-02-15T17:35:01.380Z,18.33
2023-02-15T17:37:44.240Z,16.10
2023-02-15T17:40:25.312Z,14.35
2023-02-15T17:42:53.391Z,16.58
2023-02-15T17:45:22.082Z,17.63
2023-02-15T17:47:50.244Z,16.40
2023-02-15T17:50:23.613Z,16.93
2023-02-15T17:52:52.232Z,24.48
2023-02-15T17:55:38.991Z,17.48
2023-02-15T17:58:12.079Z,18.65
2023-02-15T18:01:01.982Z,17.45
2023-02-15T18:04:07.088Z,20.90
2023-02-15T18:06:54.202Z,21.63
2023-02-15T18:09:41.280Z,27.98
2023-02-15T18:12:24.979Z,26.40
2023-02-15T18:14:54.336Z,34.58
2023-02-15T18:17:30.359Z,30.33
2023-02-15T18:19:57.760Z,27.50
2023-02-15T18:22:25.059Z,31.23
2023-02-15T18:24:51.926Z,69.68
2023-02-15T18:27:21.177Z,31.58
2023-02-15T18:29:48.954Z,23.20
2023-02-15T18:32:31.844Z,17.90
2023-02-15T18:34:59.718Z,24.15
2023-02-15T18:37:31.088Z,22.70
2023-02-15T18:39:57.892Z,20.17
2023-02-15T18:42:38.060Z,23.08
2023-02-15T18:45:26.224Z,21.08
2023-02-15T18:47:52.972Z,28.40
2023-02-15T18:50:21.563Z,22.63
2023-02-15T18:52:52.526Z,24.13
2023-02-15T18:55:22.765Z,23.83
2023-02-15T18:57:52.272Z,21.92
2023-02-15T19:00:21.110Z,21.08
2023-02-15T19:02:48.374Z,22.55
2023-02-15T19:05:16.173Z,23.00
2023-02-15T19:07:45.371Z,20.25
2023-02-15T19:10:19.995Z,20.92
2023-02-15T19:12:47.538Z,40.08
2023-02-15T19:15:20.917Z,21.27
2023-02-15T19:17:47.748Z,25.95
2023-02-15T19:20:18.649Z,24.15
2023-02-15T19:22:48.112Z,22.65
2023-02-15T19:25:22.610Z,23.05
2023-02-15T19:27:50.004Z,27.30
2023-02-15T19:30:19.778Z,32.08
2023-02-15T19:32:47.249Z,27.40
2023-02-15T19:35:22.616Z,25.38
2023-02-15T19:37:52.873Z,27.27
2023-02-15T19:40:29.057Z,27.15
2023-02-15T19:42:56.321Z,28.45
2023-02-15T19:45:29.015Z,27.10
2023-02-15T19:47:56.367Z,21.13
2023-02-15T19:50:26.084Z,25.13
2023-02-15T19:52:53.524Z,29.92
2023-02-15T19:55:29.791Z,30.60
2023-02-15T19:57:58.374Z,30.52
2023-02-15T20:00:30.902Z,28.48
2023-02-15T20:02:59.424Z,30.67
2023-02-15T20:05:28.699Z,32.55
2023-02-15T20:07:55.982Z,30.25
2023-02-15T20:10:24.410Z,33.65
2023-02-15T20:12:51.229Z,29.75
2023-02-15T20:15:33.280Z,31.65
2023-02-15T20:18:03.924Z,31.73
2023-02-15T20:20:52.131Z,33.35
2023-02-15T20:23:35.582Z,30.63
2023-02-15T20:26:14.979Z,30.50
2023-02-15T20:28:42.184Z,32.22
2023-02-15T20:31:15.431Z,30.27
2023-02-15T20:33:42.785Z,36.88
2023-02-15T20:36:18.141Z,28.27
2023-02-15T20:38:51.061Z,33.67
2023-02-15T20:41:37.388Z,29.77
2023-02-15T20:44:26.690Z,28.38
2023-02-15T20:46:55.803Z,27.92
2023-02-15T20:49:24.343Z,35.08
2023-02-15T20:51:52.712Z,33.50
2023-02-15T20:54:30.022Z,31.40
2023-02-15T20:56:57.297Z,26.08
2023-02-15T20:59:30.647Z,32.88
2023-02-15T21:02:19.182Z,34.40
2023-02-15T21:04:46.623Z,30.85
2023-02-15T21:07:19.308Z,31.48
2023-02-15T21:09:46.683Z,33.13
2023-02-15T21:12:19.337Z,35.05
2023-02-15T21:14:46.584Z,37.83
2023-02-15T21:17:15.369Z,40.42
2023-02-15T21:19:44.956Z,37.67
2023-02-15T21:22:16.578Z,37.92
2023-02-15T21:24:50.488Z,37.38
2023-02-15T21:27:18.171Z,38.75
2023-02-15T21:29:45.480Z,42.00
2023-02-15T21:32:12.977Z,36.97
2023-02-15T21:34:40.757Z,35.22
2023-02-15T21:37:31.830Z,34.80
2023-02-15T21:39:58.893Z,34.40
2023-02-15T21:42:44.822Z,35.38
2023-02-15T21:45:37.077Z,34.75
2023-02-15T21:48:04.374Z,33.30
2023-02-15T21:50:50.570Z,33.25
2023-02-15T21:53:32.740Z,28.90
2023-02-15T21:56:01.911Z,30.98
2023-02-15T21:58:31.831Z,32.70
2023-02-15T22:01:00.548Z,30.05
2023-02-15T22:03:35.936Z,31.80
2023-02-15T22:06:03.717Z,29.30
2023-02-15T22:08:30.820Z,33.00
2023-02-15T22:10:58.294Z,31.00
2023-02-15T22:13:31.797Z,29.35
2023-02-15T22:15:59.425Z,33.97
2023-02-15T22:18:33.565Z,28.25
2023-02-15T22:21:01.710Z,32.97
2023-02-15T22:23:28.995Z,28.17
2023-02-15T22:26:02.146Z,30.08
2023-02-15T22:28:33.812Z,28.30
2023-02-15T22:31:01.319Z,28.63
2023-02-15T22:33:33.988Z,32.50
2023-02-15T22:36:01.285Z,32.25
2023-02-15T22:38:28.817Z,35.05
2023-02-15T22:40:58.052Z,29.83
2023-02-15T22:43:31.761Z,32.30
2023-02-15T22:46:02.823Z,30.48
2023-02-15T22:48:30.170Z,29.38
2023-02-15T22:50:57.504Z,32.08
2023-02-15T22:53:24.659Z,31.58
2023-02-15T22:55:52.003Z,32.47
2023-02-15T22:58:27.369Z,28.45
2023-02-15T23:00:54.642Z,32.85
2023-02-15T23:03:26.407Z,28.88
2023-02-15T23:05:53.707Z,28.98
2023-02-15T23:08:20.932Z,31.33
2023-02-15T23:10:54.271Z,27.75
2023-02-15T23:13:29.533Z,27.75
2023-02-15T23:15:59.087Z,25.77
2023-02-15T23:18:32.673Z,29.02
2023-02-15T23:21:06.847Z,33.65
2023-02-15T23:23:37.062Z,30.83
2023-02-15T23:26:04.879Z,29.52
2023-02-15T23:28:36.077Z,30.02
2023-02-15T23:31:03.654Z,30.05
2023-02-15T23:33:33.803Z,27.40
2023-02-15T23:36:00.993Z,29.67
2023-02-15T23:38:30.304Z,31.00
2023-02-15T23:41:20.804Z,30.98
2023-02-15T23:44:05.896Z,30.08
2023-02-15T23:46:45.239Z,25.48
2023-02-15T23:49:17.459Z,29.45
2023-02-15T23:51:49.355Z,27.35
2023-02-15T23:54:18.168Z,32.95
2023-02-15T23:56:49.009Z,27.55
2023-02-15T23:59:24.392Z,34.50
